createdAt,value
2022-09-26T00:00:37.458Z,100254.78
2022-09-26T00:01:42.914Z,100251.13
2022-09-26T00:02:45.227Z,100252.75
2022-09-26T00:03:50.556Z,100250.72
2022-09-26T00:04:53.625Z,100238.78
2022-09-26T00:06:01.757Z,100242.28
2022-09-26T00:07:03.816Z,100241.25
2022-09-26T00:08:08.198Z,100243.69
2022-09-26T00:09:10.603Z,100238.97
2022-09-26T00:10:14.992Z,100228.31
2022-09-26T00:11:19.375Z,100233.66
2022-09-26T00:12:22.421Z,100236.50
2022-09-26T00:13:24.552Z,100230.16
2022-09-26T00:14:29.941Z,100229.13
2022-09-26T00:15:32.057Z,100217.41
2022-09-26T00:16:35.915Z,100223.38
2022-09-26T00:17:38.260Z,100217.03
2022-09-26T00:18:41.957Z,100218.66
2022-09-26T00:19:44.058Z,100227.28
2022-09-26T00:20:47.107Z,100225.63
2022-09-26T00:21:49.363Z,100208.81
2022-09-26T00:22:52.399Z,100215.78
2022-09-26T00:23:55.497Z,100213.94
2022-09-26T00:24:58.555Z,100212.09
2022-09-26T00:26:02.282Z,100211.25
2022-09-26T00:27:05.353Z,100211.25
2022-09-26T00:28:07.364Z,100196.28
2022-09-26T00:29:13.456Z,100197.53
2022-09-26T00:30:15.611Z,100195.25
2022-09-26T00:31:21.577Z,100196.09
2022-09-26T00:32:23.685Z,100196.09
2022-09-26T00:33:26.691Z,100196.88
2022-09-26T00:34:29.694Z,100196.88
2022-09-26T00:35:31.771Z,100194.22
2022-09-26T00:36:38.520Z,100186.22
2022-09-26T00:37:40.795Z,100197.94
2022-09-26T00:38:44.969Z,100192.59
2022-09-26T00:39:47.101Z,100185.41
2022-09-26T00:40:51.077Z,100181.91
2022-09-26T00:41:55.875Z,100185.41
2022-09-26T00:42:58.635Z,100182.94
2022-09-26T00:44:02.521Z,100181.09
2022-09-26T00:45:05.369Z,100171.88
2022-09-26T00:46:22.703Z,100186.44
2022-09-26T00:47:35.557Z,100181.91
2022-09-26T00:48:41.391Z,100179.25
2022-09-26T00:49:45.347Z,100168.19
2022-09-26T00:50:49.486Z,100173.91
2022-09-26T00:51:55.973Z,100171.47
2022-09-26T00:53:04.358Z,100170.63
2022-09-26T00:54:11.211Z,100174.94
2022-09-26T00:55:18.791Z,100169.81
2022-09-26T00:56:25.665Z,100169.00
2022-09-26T00:57:34.586Z,100167.34
2022-09-26T00:58:41.665Z,100167.34
2022-09-26T00:59:48.477Z,100161.22
2022-09-26T01:00:51.465Z,100167.34
2022-09-26T01:01:57.349Z,100162.00
2022-09-26T01:03:00.631Z,100160.16
2022-09-26T01:04:04.879Z,100165.50
2022-09-26T01:05:08.520Z,100169.00
2022-09-26T01:06:12.206Z,100159.97
2022-09-26T01:07:18.282Z,100154.63
2022-09-26T01:08:26.563Z,100155.44
2022-09-26T01:09:30.537Z,100154.63
2022-09-26T01:10:35.443Z,100151.97
2022-09-26T01:11:39.617Z,100156.69
2022-09-26T01:12:44.473Z,100144.78
2022-09-26T01:13:48.078Z,100149.91
2022-09-26T01:14:54.186Z,100149.91
2022-09-26T01:15:57.088Z,100140.88
2022-09-26T01:17:00.904Z,100148.06
2022-09-26T01:18:03.388Z,100141.06
2022-09-26T01:19:18.537Z,100148.84
2022-09-26T01:20:29.404Z,100145.41
2022-09-26T01:21:43.985Z,100144.34
2022-09-26T01:23:17.125Z,100150.53
2022-09-26T01:24:41.269Z,100136.13
2022-09-26T01:26:05.400Z,100132.41
2022-09-26T01:27:37.813Z,100131.63
2022-09-26T01:28:58.094Z,100128.75
2022-09-26T01:30:07.637Z,100123.41
2022-09-26T01:31:31.361Z,100123.41
2022-09-26T01:33:07.624Z,100122.59
2022-09-26T01:34:18.207Z,100120.75
2022-09-26T01:35:45.059Z,100119.09
2022-09-26T01:37:03.369Z,100125.25
2022-09-26T01:38:20.176Z,100118.91
2022-09-26T01:39:41.144Z,100109.03
2022-09-26T01:40:45.308Z,100115.19
2022-09-26T01:41:56.891Z,100117.84
2022-09-26T01:43:07.652Z,100108.00
2022-09-26T01:44:17.405Z,100108.00
2022-09-26T01:45:26.588Z,100111.47
2022-09-26T01:46:36.326Z,100100.81
2022-09-26T01:47:42.576Z,100107.78
2022-09-26T01:48:50.815Z,100100.59
2022-09-26T01:49:58.718Z,100096.91
2022-09-26T01:51:06.910Z,100104.91
2022-09-26T01:52:17.410Z,100102.25
2022-09-26T01:53:26.095Z,100103.06
2022-09-26T01:54:38.636Z,100096.06
2022-09-26T01:55:46.169Z,100094.25
2022-09-26T01:56:53.566Z,100096.91
2022-09-26T01:58:03.434Z,100103.88
2022-09-26T01:59:09.739Z,100103.88
2022-09-26T02:00:12.744Z,100107.38
2022-09-26T02:01:23.617Z,100101.19
2022-09-26T02:02:29.147Z,100105.53
2022-09-26T02:03:38.025Z,100105.53
2022-09-26T02:04:44.731Z,100102.84
2022-09-26T02:05:53.414Z,100102.03
2022-09-26T02:07:00.482Z,100093.81
2022-09-26T02:08:08.457Z,100102.63
2022-09-26T02:09:15.265Z,100094.63
2022-09-26T02:10:24.246Z,100091.97
2022-09-26T02:11:26.918Z,100086.41
2022-09-26T02:12:34.087Z,100083.75
2022-09-26T02:13:41.707Z,100085.59
2022-09-26T02:14:48.497Z,100082.09
2022-09-26T02:15:56.184Z,100083.13
2022-09-26T02:17:06.713Z,100080.25
2022-09-26T02:18:15.247Z,100079.41
2022-09-26T02:19:24.185Z,100069.56
2022-09-26T02:20:30.730Z,100068.97
2022-09-26T02:21:33.855Z,100066.09
2022-09-26T02:22:36.148Z,100057.06
2022-09-26T02:23:39.326Z,100055.22
2022-09-26T02:24:41.450Z,100050.69
2022-09-26T02:25:44.786Z,100056.84
2022-09-26T02:26:46.948Z,100048.63
2022-09-26T02:27:50.697Z,100040.63
2022-09-26T02:28:53.056Z,100034.22
2022-09-26T02:29:57.569Z,100038.78
2022-09-26T02:31:01.527Z,100040.63
2022-09-26T02:32:15.536Z,100049.44
2022-09-26T02:33:17.980Z,100027.28
2022-09-26T02:34:21.070Z,100033.44
2022-09-26T02:35:42.282Z,100036.09
2022-09-26T02:36:46.411Z,100030.56
2022-09-26T02:37:48.811Z,100033.22
2022-09-26T02:38:51.899Z,100029.72
2022-09-26T02:40:12.477Z,100029.72
2022-09-26T02:41:23.913Z,100034.22
2022-09-26T02:42:33.321Z,100024.59
2022-09-26T02:43:45.574Z,100017.66
2022-09-26T02:45:25.911Z,100013.94
2022-09-26T02:46:43.697Z,100021.94
2022-09-26T02:48:08.209Z,100011.47
2022-09-26T02:49:26.483Z,100008.59
2022-09-26T02:50:47.874Z,100014.16
2022-09-26T02:52:08.920Z,100000.81
2022-09-26T02:53:23.741Z,99995.91
2022-09-26T02:54:39.961Z,99994.63
2022-09-26T02:55:52.736Z,99999.97
2022-09-26T02:57:11.095Z,99995.47
2022-09-26T02:58:20.630Z,99991.97
2022-09-26T02:59:35.060Z,99987.69
2022-09-26T03:00:49.354Z,99991.97
2022-09-26T03:02:00.846Z,99994.63
2022-09-26T03:03:13.540Z,99985.84
2022-09-26T03:04:27.073Z,99985.00
2022-09-26T03:05:32.174Z,99982.34
2022-09-26T03:06:39.610Z,99980.50
2022-09-26T03:07:46.834Z,99980.91
2022-09-26T03:08:49.808Z,99962.88
2022-09-26T03:09:55.648Z,99977.63
2022-09-26T03:11:05.231Z,99973.91
2022-09-26T03:12:10.096Z,99968.38
2022-09-26T03:13:16.072Z,99976.56
2022-09-26T03:14:21.102Z,99966.94
2022-09-26T03:15:24.542Z,99972.84
2022-09-26T03:16:31.783Z,99970.19
2022-09-26T03:17:36.958Z,99973.47
2022-09-26T03:18:46.922Z,99964.66
2022-09-26T03:19:53.446Z,99962.78
2022-09-26T03:20:56.696Z,99967.09
2022-09-26T03:22:00.106Z,99955.00
2022-09-26T03:23:04.158Z,99954.78
2022-09-26T03:24:07.030Z,99951.09
2022-09-26T03:25:12.588Z,99949.22
2022-09-26T03:26:24.606Z,99944.72
2022-09-26T03:27:35.795Z,99941.44
2022-09-26T03:28:38.303Z,99948.84
2022-09-26T03:29:41.907Z,99935.47
2022-09-26T03:30:49.849Z,99935.25
2022-09-26T03:32:00.481Z,99933.38
2022-09-26T03:33:03.346Z,99928.25
2022-09-26T03:34:08.441Z,99928.88
2022-09-26T03:35:13.760Z,99919.47
2022-09-26T03:36:17.006Z,99918.19
2022-09-26T03:37:19.145Z,99922.47
2022-09-26T03:38:22.268Z,99925.75
2022-09-26T03:39:32.849Z,99922.28
2022-09-26T03:40:51.034Z,99915.06
2022-09-26T03:42:34.022Z,99916.72
2022-09-26T03:43:36.830Z,99913.91
2022-09-26T03:44:39.928Z,99908.94
2022-09-26T03:45:47.652Z,99909.75
2022-09-26T03:46:56.286Z,99907.91
2022-09-26T03:47:58.666Z,99902.78
2022-09-26T03:49:01.987Z,99902.19
2022-09-26T03:50:06.458Z,99891.28
2022-09-26T03:51:11.764Z,99895.78
2022-09-26T03:52:13.992Z,99894.16
2022-09-26T03:53:18.889Z,99890.91
2022-09-26T03:54:21.158Z,99896.84
2022-09-26T03:55:25.063Z,99892.53
2022-09-26T03:56:27.203Z,99893.34
2022-09-26T03:57:30.250Z,99885.56
2022-09-26T03:58:39.677Z,99889.28
2022-09-26T03:59:43.295Z,99887.22
2022-09-26T04:00:46.635Z,99892.53
2022-09-26T04:01:50.251Z,99883.72
2022-09-26T04:02:52.502Z,99886.59
2022-09-26T04:04:08.594Z,99880.44
2022-09-26T04:05:14.432Z,99882.66
2022-09-26T04:06:20.234Z,99883.72
2022-09-26T04:07:23.724Z,99882.28
2022-09-26T04:08:25.800Z,99882.44
2022-09-26T04:09:29.435Z,99882.44
2022-09-26T04:10:31.556Z,99870.75
2022-09-26T04:11:34.783Z,99876.09
2022-09-26T04:12:36.838Z,99877.72
2022-09-26T04:13:51.174Z,99873.19
2022-09-26T04:14:56.027Z,99878.53
2022-09-26T04:15:59.845Z,99871.19
2022-09-26T04:17:03.181Z,99872.16
2022-09-26T04:18:09.962Z,99872.97
2022-09-26T04:19:13.137Z,99871.94
2022-09-26T04:20:17.085Z,99872.75
2022-09-26T04:21:20.370Z,99863.56
2022-09-26T04:22:22.657Z,99864.53
2022-09-26T04:23:26.018Z,99868.84
2022-09-26T04:24:29.259Z,99863.50
2022-09-26T04:25:31.660Z,99856.06
2022-09-26T04:26:34.714Z,99852.59
2022-09-26T04:27:38.442Z,99855.06
2022-09-26T04:28:42.344Z,99854.22
2022-09-26T04:29:45.158Z,99851.78
2022-09-26T04:30:53.384Z,99846.59
2022-09-26T04:31:55.857Z,99849.25
2022-09-26T04:33:05.643Z,99850.09
2022-09-26T04:34:11.242Z,99844.53
2022-09-26T04:35:14.624Z,99842.69
2022-09-26T04:36:18.687Z,99851.50
2022-09-26T04:37:22.531Z,99844.31
2022-09-26T04:38:24.871Z,99830.94
2022-09-26T04:39:28.104Z,99834.44
2022-09-26T04:40:31.537Z,99836.28
2022-09-26T04:41:42.008Z,99830.72
2022-09-26T04:42:44.076Z,99828.06
2022-09-26T04:43:47.537Z,99828.06
2022-09-26T04:44:51.704Z,99826.22
2022-09-26T04:45:54.877Z,99825.16
2022-09-26T04:46:57.003Z,99825.38
2022-09-26T04:48:10.219Z,99822.13
2022-09-26T04:49:48.692Z,99822.13
2022-09-26T04:50:51.168Z,99821.66
2022-09-26T04:51:55.818Z,99825.38
2022-09-26T04:53:00.395Z,99817.97
2022-09-26T04:54:03.476Z,99816.56
2022-09-26T04:55:11.443Z,99824.34
2022-09-26T04:56:16.228Z,99814.47
2022-09-26T04:57:19.980Z,99827.00
2022-09-26T04:58:23.361Z,99817.16
2022-09-26T04:59:26.590Z,99818.22
2022-09-26T05:00:34.494Z,99814.72
2022-09-26T05:01:40.740Z,99817.38
2022-09-26T05:02:48.434Z,99813.09
2022-09-26T05:03:51.525Z,99815.16
2022-09-26T05:04:53.554Z,99815.97
2022-09-26T05:05:56.771Z,99820.50
2022-09-26T05:07:01.854Z,99803.66
2022-09-26T05:08:07.217Z,99810.03
2022-09-26T05:09:10.417Z,99807.38
2022-09-26T05:10:38.611Z,99800.38
2022-09-26T05:11:40.909Z,99803.06
2022-09-26T05:12:46.724Z,99800.38
2022-09-26T05:13:53.624Z,99804.94
2022-09-26T05:14:56.649Z,99797.94
2022-09-26T05:16:00.999Z,99803.06
2022-09-26T05:17:04.829Z,99796.09
2022-09-26T05:18:08.646Z,99800.38
2022-09-26T05:19:12.815Z,99806.53
2022-09-26T05:20:29.298Z,99800.97
2022-09-26T05:21:35.655Z,99792.97
2022-09-26T05:22:39.586Z,99803.88
2022-09-26T05:24:00.301Z,99801.81
2022-09-26T05:25:20.881Z,99792.97
2022-09-26T05:26:26.857Z,99784.38
2022-09-26T05:27:28.966Z,99788.47
2022-09-26T05:28:32.104Z,99796.25
2022-09-26T05:29:35.301Z,99790.09
2022-09-26T05:30:41.109Z,99788.84
2022-09-26T05:31:44.606Z,99784.28
2022-09-26T05:32:48.392Z,99777.78
2022-09-26T05:33:52.138Z,99782.44
2022-09-26T05:34:56.211Z,99780.59
2022-09-26T05:35:59.442Z,99787.56
2022-09-26T05:37:02.988Z,99778.75
2022-09-26T05:38:06.561Z,99783.03
2022-09-26T05:39:26.395Z,99784.88
2022-09-26T05:40:47.559Z,99778.53
2022-09-26T05:41:51.634Z,99777.47
2022-09-26T05:43:00.498Z,99779.94
2022-09-26T05:44:04.337Z,99778.91
2022-09-26T05:45:09.578Z,99779.69
2022-09-26T05:46:13.162Z,99766.81
2022-09-26T05:47:21.849Z,99770.66
2022-09-26T05:48:25.323Z,99766.94
2022-09-26T05:49:27.891Z,99771.25
2022-09-26T05:50:31.233Z,99771.25
2022-09-26T05:51:34.352Z,99735.94
2022-09-26T05:52:36.818Z,99774.50
2022-09-26T05:53:42.812Z,99774.72
2022-09-26T05:54:44.926Z,99774.28
2022-09-26T05:56:07.454Z,99772.44
2022-09-26T05:57:29.778Z,99766.50
2022-09-26T05:58:34.357Z,99762.34
2022-09-26T05:59:52.630Z,99775.47
2022-09-26T06:01:21.886Z,99771.75
2022-09-26T06:02:31.567Z,99766.19
2022-09-26T06:03:52.264Z,99768.44
2022-09-26T06:05:00.146Z,99765.31
2022-09-26T06:06:20.903Z,99765.06
2022-09-26T06:07:29.236Z,99769.16
2022-09-26T06:08:33.301Z,99763.63
2022-09-26T06:09:59.729Z,99771.19
2022-09-26T06:11:55.845Z,99766.22
2022-09-26T06:13:01.081Z,99767.59
2022-09-26T06:14:04.466Z,99765.28
2022-09-26T06:15:09.544Z,99762.41
2022-09-26T06:16:16.007Z,99753.34
2022-09-26T06:17:18.250Z,99757.19
2022-09-26T06:18:21.703Z,99762.91
2022-09-26T06:19:24.196Z,99766.16
2022-09-26T06:20:27.639Z,99762.22
2022-09-26T06:21:31.691Z,99763.63
2022-09-26T06:22:40.547Z,99762.16
2022-09-26T06:23:44.333Z,99752.84
2022-09-26T06:24:54.383Z,99750.75
2022-09-26T06:25:59.197Z,99752.16
2022-09-26T06:27:01.277Z,99751.72
2022-09-26T06:28:04.322Z,99747.16
2022-09-26T06:29:07.600Z,99746.94
2022-09-26T06:30:12.057Z,99744.84
2022-09-26T06:31:17.066Z,99744.25
2022-09-26T06:32:39.230Z,99750.56
2022-09-26T06:33:55.338Z,99739.63
2022-09-26T06:35:30.447Z,99732.81
2022-09-26T06:36:39.849Z,99734.19
2022-09-26T06:37:41.952Z,99737.44
2022-09-26T06:38:45.033Z,99731.63
2022-09-26T06:39:54.607Z,99737.34
2022-09-26T06:41:01.765Z,99729.91
2022-09-26T06:42:05.748Z,99735.38
2022-09-26T06:43:49.154Z,99723.50
2022-09-26T06:45:23.879Z,99735.84
2022-09-26T06:47:00.968Z,99728.78
2022-09-26T06:48:09.119Z,99726.44
2022-09-26T06:49:35.439Z,99727.38
2022-09-26T06:50:43.701Z,99728.53
2022-09-26T06:51:46.811Z,99734.25
2022-09-26T06:52:50.016Z,99724.94
2022-09-26T06:53:52.979Z,99728.78
2022-09-26T06:55:00.880Z,99725.03
2022-09-26T06:56:05.081Z,99724.56
2022-09-26T06:57:12.851Z,99711.91
2022-09-26T06:58:17.337Z,99726.56
2022-09-26T06:59:28.576Z,99720.75
2022-09-26T07:00:41.746Z,99718.66
2022-09-26T07:02:01.283Z,99716.22
2022-09-26T07:03:26.933Z,99730.16
2022-09-26T07:04:41.378Z,99733.88
2022-09-26T07:05:55.629Z,99727.13
2022-09-26T07:07:00.242Z,99719.31
2022-09-26T07:08:04.252Z,99716.09
2022-09-26T07:09:11.242Z,99709.34
2022-09-26T07:10:38.457Z,99718.19
2022-09-26T07:12:12.792Z,99708.50
2022-09-26T07:13:11.235Z,99706.91
2022-09-26T07:14:16.944Z,99709.00
2022-09-26T07:15:27.568Z,99706.06
2022-09-26T07:16:30.522Z,99716.31
2022-09-26T07:18:07.374Z,99712.34
2022-09-26T07:19:29.922Z,99704.91
2022-09-26T07:20:42.818Z,99704.44
2022-09-26T07:22:18.705Z,99700.47
2022-09-26T07:23:27.652Z,99704.56
2022-09-26T07:24:29.698Z,99700.03
2022-09-26T07:25:33.493Z,99707.81
2022-09-26T07:26:37.029Z,99697.91
2022-09-26T07:27:42.257Z,99711.06
2022-09-26T07:28:44.791Z,99699.78
2022-09-26T07:29:48.926Z,99709.44
2022-09-26T07:30:57.125Z,99699.19
2022-09-26T07:32:14.001Z,99701.63
2022-09-26T07:33:36.331Z,99700.56
2022-09-26T07:34:43.978Z,99698.72
2022-09-26T07:35:48.323Z,99665.59
2022-09-26T07:36:51.752Z,99698.47
2022-09-26T07:37:53.846Z,99683.47
2022-09-26T07:38:57.199Z,99679.41
2022-09-26T07:40:01.559Z,99682.19
2022-09-26T07:41:10.756Z,99679.75
2022-09-26T07:45:56.216Z,99680.34
2022-09-26T07:47:17.048Z,99688.13
2022-09-26T07:48:38.126Z,99689.53
2022-09-26T07:50:16.533Z,99683.13
2022-09-26T07:51:33.562Z,99683.69
2022-09-26T07:52:39.327Z,99681.84
2022-09-26T07:54:00.546Z,99680.78
2022-09-26T07:55:29.886Z,99680.78
2022-09-26T07:56:34.570Z,99686.72
2022-09-26T07:57:55.906Z,99680.31
2022-09-26T07:59:18.768Z,99681.72
2022-09-26T08:00:33.331Z,99676.34
2022-09-26T08:01:55.737Z,99676.91
2022-09-26T08:03:07.198Z,99681.03
2022-09-26T08:04:18.690Z,99674.84
2022-09-26T08:05:21.007Z,99678.09
2022-09-26T08:06:26.029Z,99673.56
2022-09-26T08:07:28.133Z,99675.19
2022-09-26T08:08:41.403Z,99678.69
2022-09-26T08:10:19.228Z,99674.69
2022-09-26T08:11:41.858Z,99669.94
2022-09-26T08:12:56.788Z,99668.31
2022-09-26T08:14:08.820Z,99672.59
2022-09-26T08:15:24.673Z,99685.75
2022-09-26T08:16:41.448Z,99672.59
2022-09-26T08:17:44.969Z,99670.75
2022-09-26T08:18:48.322Z,99667.72
2022-09-26T08:19:50.411Z,99639.00
2022-09-26T08:20:53.549Z,99672.38
2022-09-26T08:21:56.228Z,99662.47
2022-09-26T08:22:59.403Z,99665.72
2022-09-26T08:24:02.217Z,99660.38
2022-09-26T08:25:09.819Z,99664.44
2022-09-26T08:26:30.276Z,99669.53
2022-09-26T08:27:47.601Z,99665.34
2022-09-26T08:28:49.709Z,99660.81
2022-09-26T08:29:53.829Z,99659.50
2022-09-26T08:30:58.089Z,99660.09
2022-09-26T08:32:03.402Z,99657.75
2022-09-26T08:33:12.499Z,99658.31
2022-09-26T08:34:14.782Z,99661.34
2022-09-26T08:35:21.839Z,99653.59
2022-09-26T08:36:28.205Z,99662.56
2022-09-26T08:37:46.212Z,99664.31
2022-09-26T08:39:07.769Z,99659.03
2022-09-26T08:40:41.190Z,99659.91
2022-09-26T08:42:13.787Z,99654.41
2022-09-26T08:44:00.031Z,99661.47
2022-09-26T08:46:00.149Z,99659.47
2022-09-26T08:47:28.403Z,99649.88
2022-09-26T08:49:22.849Z,99653.19
2022-09-26T08:50:33.318Z,99652.47
2022-09-26T08:51:40.419Z,99645.81
2022-09-26T08:52:51.232Z,99646.13
2022-09-26T08:53:57.677Z,99640.28
2022-09-26T08:55:07.076Z,99643.53
2022-09-26T08:56:19.214Z,99647.09
2022-09-26T08:57:32.093Z,99642.03
2022-09-26T08:58:41.022Z,99647.75
2022-09-26T08:59:46.921Z,99637.09
2022-09-26T09:00:55.483Z,99634.41
2022-09-26T09:02:05.081Z,99646.66
2022-09-26T09:03:28.676Z,99640.09
2022-09-26T09:04:41.374Z,99636.19
2022-09-26T09:05:48.720Z,99636.00
2022-09-26T09:06:59.796Z,99629.88
2022-09-26T09:08:03.457Z,99638.88
2022-09-26T09:09:12.736Z,99640.28
2022-09-26T09:10:49.439Z,99625.13
2022-09-26T09:12:20.630Z,99635.44
2022-09-26T09:13:46.069Z,99629.31
2022-09-26T09:15:26.472Z,99633.94
2022-09-26T09:17:08.155Z,99627.47
2022-09-26T09:18:43.671Z,99626.44
2022-09-26T09:20:33.746Z,99632.84
2022-09-26T09:22:08.911Z,99625.88
2022-09-26T09:24:08.703Z,99628.00
2022-09-26T09:25:17.543Z,99622.03
2022-09-26T09:28:10.960Z,99620.94
2022-09-26T09:29:27.253Z,99618.75
2022-09-26T09:30:53.287Z,99617.13
2022-09-26T09:32:35.674Z,99621.41
2022-09-26T09:34:15.992Z,99617.44
2022-09-26T09:35:43.631Z,99614.75
2022-09-26T09:37:00.498Z,99611.56
2022-09-26T09:38:29.409Z,99612.38
2022-09-26T09:39:54.192Z,99605.41
2022-09-26T09:41:05.537Z,99604.94
2022-09-26T09:42:17.602Z,99603.88
2022-09-26T09:43:28.786Z,99602.78
2022-09-26T09:44:46.458Z,99606.28
2022-09-26T09:45:51.616Z,99600.91
2022-09-26T09:46:54.792Z,99595.53
2022-09-26T09:47:58.752Z,99600.09
2022-09-26T09:49:18.777Z,99600.09
2022-09-26T09:50:39.975Z,99602.56
2022-09-26T09:51:52.688Z,99597.72
2022-09-26T09:53:06.268Z,99604.47
2022-09-26T09:54:26.681Z,99606.66
2022-09-26T09:55:41.626Z,99599.97
2022-09-26T09:56:58.286Z,99586.53
2022-09-26T09:58:35.653Z,99597.38
2022-09-26T10:00:02.860Z,99592.28
2022-09-26T10:01:21.875Z,99585.88
2022-09-26T10:02:34.949Z,99589.16
2022-09-26T10:03:47.587Z,99595.63
2022-09-26T10:04:59.344Z,99588.13
2022-09-26T10:06:06.573Z,99582.22
2022-09-26T10:07:17.037Z,99585.47
2022-09-26T10:08:36.767Z,99584.72
2022-09-26T10:09:44.897Z,99592.31
2022-09-26T10:11:30.344Z,99597.19
2022-09-26T10:12:35.105Z,99589.66
2022-09-26T10:14:16.775Z,99583.22
2022-09-26T10:15:45.707Z,99583.22
2022-09-26T10:17:21.463Z,99579.69
2022-09-26T10:18:59.407Z,99578.91
2022-09-26T10:20:10.390Z,99584.03
2022-09-26T10:21:16.395Z,99569.75
2022-09-26T10:22:32.691Z,99574.31
2022-09-26T10:23:40.293Z,99563.25
2022-09-26T10:24:48.377Z,99575.41
2022-09-26T10:26:03.780Z,99570.28
2022-09-26T10:27:15.361Z,99564.63
2022-09-26T10:28:29.148Z,99568.16
2022-09-26T10:29:35.859Z,99565.19
2022-09-26T10:30:50.089Z,99559.25
2022-09-26T10:32:00.334Z,99565.69
2022-09-26T10:33:05.045Z,99562.47
2022-09-26T10:34:24.677Z,99558.06
2022-09-26T10:35:41.166Z,99556.47
2022-09-26T10:36:43.447Z,99553.22
2022-09-26T10:37:58.504Z,99553.22
2022-09-26T10:39:20.568Z,99543.53
2022-09-26T10:40:47.097Z,99552.69
2022-09-26T10:41:59.187Z,99543.56
2022-09-26T10:43:20.248Z,99543.56
2022-09-26T10:44:28.647Z,99541.94
2022-09-26T10:45:39.819Z,99542.75
2022-09-26T10:47:08.272Z,99540.59
2022-09-26T10:48:47.958Z,99544.31
2022-09-26T10:50:14.164Z,99539.47
2022-09-26T10:51:46.678Z,99541.34
2022-09-26T10:52:58.341Z,99552.09
2022-09-26T10:54:09.376Z,99537.88
2022-09-26T10:55:16.760Z,99538.66
2022-09-26T10:56:26.293Z,99527.91
2022-09-26T10:57:35.993Z,99532.47
2022-09-26T10:58:42.927Z,99528.16
2022-09-26T10:59:49.160Z,99532.47
2022-09-26T11:00:51.754Z,99529.78
2022-09-26T11:02:03.726Z,99523.34
2022-09-26T11:03:10.847Z,99528.44
2022-09-26T11:04:56.333Z,99529.28
2022-09-26T11:06:26.642Z,99528.19
2022-09-26T11:07:38.616Z,99520.94
2022-09-26T11:09:04.257Z,99516.13
2022-09-26T11:10:32.538Z,99520.69
2022-09-26T11:11:52.459Z,99522.88
2022-09-26T11:13:01.289Z,99515.38
2022-09-26T11:14:07.583Z,99519.16
2022-09-26T11:15:13.134Z,99512.94
2022-09-26T11:16:20.277Z,99515.13
2022-09-26T11:17:47.442Z,99510.28
2022-09-26T11:18:59.119Z,99505.75
2022-09-26T11:20:03.511Z,99507.34
2022-09-26T11:21:28.364Z,99513.53
2022-09-26T11:22:41.422Z,99503.31
2022-09-26T11:23:51.278Z,99509.44
2022-09-26T11:25:06.294Z,99501.56
2022-09-26T11:26:18.216Z,99508.03
2022-09-26T11:27:31.411Z,99500.97
2022-09-26T11:28:41.757Z,99504.69
2022-09-26T11:30:03.051Z,99505.44
2022-09-26T11:31:16.635Z,99492.22
2022-09-26T11:32:30.391Z,99497.00
2022-09-26T11:33:32.560Z,99504.19
2022-09-26T11:35:15.853Z,99495.50
2022-09-26T11:36:36.986Z,99500.59
2022-09-26T11:37:55.116Z,99494.94
2022-09-26T11:38:59.329Z,99494.06
2022-09-26T11:40:34.907Z,99498.56
2022-09-26T11:41:52.324Z,99489.66
2022-09-26T11:43:13.590Z,99493.34
2022-09-26T11:44:39.297Z,99483.66
2022-09-26T11:46:15.234Z,99484.38
2022-09-26T11:48:08.184Z,99485.16
2022-09-26T11:49:50.085Z,99474.09
2022-09-26T11:51:10.411Z,99476.78
2022-09-26T11:52:39.640Z,99472.75
2022-09-26T11:53:58.452Z,99477.53
2022-09-26T11:55:11.140Z,99463.56
2022-09-26T11:56:37.984Z,99464.88
2022-09-26T11:57:48.615Z,99467.25
2022-09-26T11:59:00.685Z,99463.44
2022-09-26T12:00:08.896Z,99467.69
2022-09-26T12:01:27.220Z,99456.06
2022-09-26T12:03:05.023Z,99457.88
2022-09-26T12:04:27.176Z,99454.31
2022-09-26T12:05:41.799Z,99444.03
2022-09-26T12:06:55.129Z,99446.16
2022-09-26T12:08:10.005Z,99443.16
2022-09-26T12:09:24.294Z,99443.91
2022-09-26T12:10:35.249Z,99440.66
2022-09-26T12:11:49.157Z,99437.41
2022-09-26T12:13:05.998Z,99440.91
2022-09-26T12:14:22.035Z,99430.19
2022-09-26T12:15:31.733Z,99438.22
2022-09-26T12:16:45.726Z,99429.88
2022-09-26T12:17:59.556Z,99427.50
2022-09-26T12:19:10.466Z,99427.75
2022-09-26T12:20:29.159Z,99432.88
2022-09-26T12:21:41.937Z,99431.81
2022-09-26T12:22:51.054Z,99419.78
2022-09-26T12:23:57.222Z,99420.06
2022-09-26T12:25:38.822Z,99383.66
2022-09-26T12:26:51.198Z,99420.19
2022-09-26T12:28:06.150Z,99422.94
2022-09-26T12:29:24.299Z,99419.25
2022-09-26T12:30:32.953Z,99415.81
2022-09-26T12:31:51.264Z,99418.34
2022-09-26T12:33:09.881Z,99427.25
2022-09-26T12:34:38.546Z,99418.44
2022-09-26T12:35:53.418Z,99405.31
2022-09-26T12:37:09.803Z,99406.69
2022-09-26T12:38:36.162Z,99409.94
2022-09-26T12:40:17.667Z,99405.94
2022-09-26T12:42:08.980Z,99403.53
2022-09-26T12:43:30.032Z,99406.78
2022-09-26T12:44:46.872Z,99410.03
2022-09-26T12:46:06.419Z,99405.78
2022-09-26T12:47:41.517Z,99402.56
2022-09-26T12:48:58.617Z,99398.28
2022-09-26T12:50:15.982Z,99405.59
2022-09-26T12:51:31.005Z,99401.59
2022-09-26T12:53:10.242Z,99406.44
2022-09-26T12:54:54.713Z,99407.00
2022-09-26T12:56:06.817Z,99405.41
2022-09-26T12:57:22.355Z,99400.84
2022-09-26T12:58:38.164Z,99406.44
2022-09-26T13:00:09.641Z,99399.47
2022-09-26T13:01:27.584Z,99398.63
2022-09-26T13:02:51.894Z,99398.91
2022-09-26T13:04:39.602Z,99403.72
2022-09-26T13:05:58.076Z,99393.47
2022-09-26T13:07:20.922Z,99402.06
2022-09-26T13:08:31.318Z,99395.34
2022-09-26T13:09:55.141Z,99388.59
2022-09-26T13:11:12.885Z,99392.84
2022-09-26T13:12:33.530Z,99395.25
2022-09-26T13:14:09.023Z,99389.56
2022-09-26T13:15:23.266Z,99391.69
2022-09-26T13:16:35.735Z,99390.06
2022-09-26T13:17:41.558Z,99388.72
2022-09-26T13:18:48.343Z,99386.84
2022-09-26T13:19:56.225Z,99381.72
2022-09-26T13:21:04.732Z,99385.19
2022-09-26T13:22:27.390Z,99380.91
2022-09-26T13:23:35.788Z,99378.22
2022-09-26T13:24:48.393Z,99377.16
2022-09-26T13:25:55.833Z,99378.78
2022-09-26T13:27:08.418Z,99376.09
2022-09-26T13:28:18.998Z,99376.09
2022-09-26T13:29:26.935Z,99370.19
2022-09-26T13:30:35.670Z,99375.53
2022-09-26T13:31:43.210Z,99366.66
2022-09-26T13:32:56.002Z,99376.06
2022-09-26T13:34:05.059Z,99366.09
2022-09-26T13:35:16.918Z,99364.50
2022-09-26T13:36:22.874Z,99366.09
2022-09-26T13:37:37.106Z,99354.59
2022-09-26T13:38:47.685Z,99358.06
2022-09-26T13:39:53.901Z,99364.25
2022-09-26T13:41:05.214Z,99361.56
2022-09-26T13:42:14.760Z,99348.13
2022-09-26T13:43:29.175Z,99356.44
2022-09-26T13:44:55.774Z,99356.97
2022-09-26T13:46:06.153Z,99351.28
2022-09-26T13:47:19.756Z,99357.44
2022-09-26T13:48:34.679Z,99351.47
2022-09-26T13:49:53.312Z,99347.66
2022-09-26T13:51:06.401Z,99349.47
2022-09-26T13:52:22.746Z,99335.16
2022-09-26T13:53:32.442Z,99339.78
2022-09-26T13:54:49.041Z,99341.06
2022-09-26T13:56:25.878Z,99345.59
2022-09-26T13:57:39.970Z,99339.09
2022-09-26T13:58:43.458Z,99346.06
2022-09-26T13:59:54.461Z,99335.81
2022-09-26T14:01:28.024Z,99265.97
2022-09-26T14:02:31.947Z,99335.75
2022-09-26T14:03:43.677Z,99338.69
2022-09-26T14:04:46.823Z,99326.59
2022-09-26T14:05:51.144Z,99331.16